sensor_id;sensor_type;location;lat;lon;timestamp;temperature;humidity
702;DHT22;334;48.808;9.222;2022-08-05T00:00:50;29.60;1.00
702;DHT22;334;48.808;9.222;2022-08-05T00:01:52;29.50;1.00
702;DHT22;334;48.808;9.222;2022-08-05T00:02:54;29.50;1.00
702;DHT22;334;48.808;9.222;2022-08-05T00:03:56;29.50;1.00
702;DHT22;334;48.808;9.222;2022-08-05T00:04:58;29.50;1.00
702;DHT22;334;48.808;9.222;2022-08-05T00:05:59;29.50;1.00
702;DHT22;334;48.808;9.222;2022-08-05T00:07:22;29.70;1.00
702;DHT22;334;48.808;9.222;2022-08-05T00:08:44;29.70;1.00
702;DHT22;334;48.808;9.222;2022-08-05T00:09:47;29.50;1.00
702;DHT22;334;48.808;9.222;2022-08-05T00:10:49;29.50;1.00
702;DHT22;334;48.808;9.222;2022-08-05T00:11:51;29.50;1.00
702;DHT22;334;48.808;9.222;2022-08-05T00:12:56;29.50;1.00
702;DHT22;334;48.808;9.222;2022-08-05T00:13:58;29.50;1.00
702;DHT22;334;48.808;9.222;2022-08-05T00:15:00;29.50;1.00
702;DHT22;334;48.808;9.222;2022-08-05T00:16:22;29.50;1.00
702;DHT22;334;48.808;9.222;2022-08-05T00:17:37;29.40;1.00
702;DHT22;334;48.808;9.222;2022-08-05T00:18:44;29.40;1.00
702;DHT22;334;48.808;9.222;2022-08-05T00:19:48;29.40;1.00
702;DHT22;334;48.808;9.222;2022-08-05T00:21:04;29.40;1.00
702;DHT22;334;48.808;9.222;2022-08-05T00:22:08;29.30;1.00
702;DHT22;334;48.808;9.222;2022-08-05T00:23:12;29.30;1.00
702;DHT22;334;48.808;9.222;2022-08-05T00:24:13;29.30;1.00
702;DHT22;334;48.808;9.222;2022-08-05T00:25:19;29.30;1.00
702;DHT22;334;48.808;9.222;2022-08-05T00:26:21;29.30;1.00
702;DHT22;334;48.808;9.222;2022-08-05T00:27:23;29.30;1.00
702;DHT22;334;48.808;9.222;2022-08-05T00:28:37;29.30;1.00
702;DHT22;334;48.808;9.222;2022-08-05T00:29:40;29.30;1.00
702;DHT22;334;48.808;9.222;2022-08-05T00:30:43;29.30;1.00
702;DHT22;334;48.808;9.222;2022-08-05T00:31:53;29.30;1.00
702;DHT22;334;48.808;9.222;2022-08-05T00:33:15;29.30;1.00
702;DHT22;334;48.808;9.222;2022-08-05T00:34:43;29.30;1.00
702;DHT22;334;48.808;9.222;2022-08-05T00:36:05;29.30;1.00
702;DHT22;334;48.808;9.222;2022-08-05T00:37:27;29.30;1.00
702;DHT22;334;48.808;9.222;2022-08-05T00:38:49;29.30;1.00
702;DHT22;334;48.808;9.222;2022-08-05T00:39:51;29.30;1.00
702;DHT22;334;48.808;9.222;2022-08-05T00:40:59;29.30;1.00
702;DHT22;334;48.808;9.222;2022-08-05T00:42:01;29.30;1.00
702;DHT22;334;48.808;9.222;2022-08-05T00:43:04;29.20;1.00
702;DHT22;334;48.808;9.222;2022-08-05T00:44:08;29.20;1.00
702;DHT22;334;48.808;9.222;2022-08-05T00:45:10;29.20;1.00
702;DHT22;334;48.808;9.222;2022-08-05T00:46:14;29.20;1.00
702;DHT22;334;48.808;9.222;2022-08-05T00:47:16;29.10;1.00
702;DHT22;334;48.808;9.222;2022-08-05T00:48:21;29.10;1.00
702;DHT22;334;48.808;9.222;2022-08-05T00:49:32;29.00;1.00
702;DHT22;334;48.808;9.222;2022-08-05T00:50:52;29.00;1.00
702;DHT22;334;48.808;9.222;2022-08-05T00:51:54;29.00;1.00
702;DHT22;334;48.808;9.222;2022-08-05T00:52:55;29.00;1.00
702;DHT22;334;48.808;9.222;2022-08-05T00:53:57;29.00;1.00
702;DHT22;334;48.808;9.222;2022-08-05T00:55:04;29.00;1.00
702;DHT22;334;48.808;9.222;2022-08-05T00:56:06;29.00;1.00
702;DHT22;334;48.808;9.222;2022-08-05T00:57:08;29.00;1.00
702;DHT22;334;48.808;9.222;2022-08-05T00:58:11;28.90;1.00
702;DHT22;334;48.808;9.222;2022-08-05T00:59:13;28.90;1.00
702;DHT22;334;48.808;9.222;2022-08-05T01:00:15;28.90;1.00
702;DHT22;334;48.808;9.222;2022-08-05T01:01:20;28.90;1.00
702;DHT22;334;48.808;9.222;2022-08-05T01:02:42;28.80;1.00
702;DHT22;334;48.808;9.222;2022-08-05T01:03:45;28.80;1.00
702;DHT22;334;48.808;9.222;2022-08-05T01:04:50;28.80;1.00
702;DHT22;334;48.808;9.222;2022-08-05T01:05:52;28.80;1.00
702;DHT22;334;48.808;9.222;2022-08-05T01:06:55;28.80;1.00
702;DHT22;334;48.808;9.222;2022-08-05T01:07:57;28.80;1.00
702;DHT22;334;48.808;9.222;2022-08-05T01:09:19;28.80;1.00
702;DHT22;334;48.808;9.222;2022-08-05T01:10:27;28.80;1.00
702;DHT22;334;48.808;9.222;2022-08-05T01:11:34;28.80;1.00
702;DHT22;334;48.808;9.222;2022-08-05T01:12:38;28.80;1.00
702;DHT22;334;48.808;9.222;2022-08-05T01:14:22;28.80;1.00
702;DHT22;334;48.808;9.222;2022-08-05T01:15:34;28.80;1.00
702;DHT22;334;48.808;9.222;2022-08-05T01:16:53;28.80;1.00
702;DHT22;334;48.808;9.222;2022-08-05T01:18:02;28.80;1.00
702;DHT22;334;48.808;9.222;2022-08-05T01:19:18;28.70;1.00
702;DHT22;334;48.808;9.222;2022-08-05T01:21:00;28.80;1.00
702;DHT22;334;48.808;9.222;2022-08-05T01:29:40;28.70;1.00
702;DHT22;334;48.808;9.222;2022-08-05T01:30:50;28.70;1.00
702;DHT22;334;48.808;9.222;2022-08-05T01:32:00;28.70;1.00
702;DHT22;334;48.808;9.222;2022-08-05T01:33:07;28.70;1.00
702;DHT22;334;48.808;9.222;2022-08-05T01:34:18;28.70;1.00
702;DHT22;334;48.808;9.222;2022-08-05T01:35:25;28.70;1.00
702;DHT22;334;48.808;9.222;2022-08-05T01:36:55;28.70;1.00
702;DHT22;334;48.808;9.222;2022-08-05T01:38:01;28.70;1.00
702;DHT22;334;48.808;9.222;2022-08-05T01:39:04;28.70;1.00
702;DHT22;334;48.808;9.222;2022-08-05T01:40:09;28.70;1.00
702;DHT22;334;48.808;9.222;2022-08-05T01:41:15;28.70;1.00
702;DHT22;334;48.808;9.222;2022-08-05T01:42:23;28.70;1.00
702;DHT22;334;48.808;9.222;2022-08-05T01:43:27;28.70;1.00
702;DHT22;334;48.808;9.222;2022-08-05T01:44:30;28.70;1.00
702;DHT22;334;48.808;9.222;2022-08-05T01:45:36;28.70;1.00
702;DHT22;334;48.808;9.222;2022-08-05T01:46:44;28.60;1.00
702;DHT22;334;48.808;9.222;2022-08-05T01:47:48;28.60;1.00
702;DHT22;334;48.808;9.222;2022-08-05T01:48:57;28.60;1.00
702;DHT22;334;48.808;9.222;2022-08-05T01:50:33;28.60;1.00
702;DHT22;334;48.808;9.222;2022-08-05T01:51:37;28.60;1.00
702;DHT22;334;48.808;9.222;2022-08-05T01:52:42;28.60;1.00
702;DHT22;334;48.808;9.222;2022-08-05T01:53:46;28.70;1.00
702;DHT22;334;48.808;9.222;2022-08-05T01:55:04;28.60;1.00
702;DHT22;334;48.808;9.222;2022-08-05T01:56:08;28.60;1.00
702;DHT22;334;48.808;9.222;2022-08-05T01:57:15;28.60;1.00
702;DHT22;334;48.808;9.222;2022-08-05T01:58:40;28.60;1.00
702;DHT22;334;48.808;9.222;2022-08-05T01:59:47;28.50;1.00
702;DHT22;334;48.808;9.222;2022-08-05T02:00:51;28.50;1.00
702;DHT22;334;48.808;9.222;2022-08-05T02:01:56;28.50;1.00
702;DHT22;334;48.808;9.222;2022-08-05T02:03:05;28.50;1.00
702;DHT22;334;48.808;9.222;2022-08-05T02:04:27;28.50;1.00
702;DHT22;334;48.808;9.222;2022-08-05T02:05:32;28.50;1.00
702;DHT22;334;48.808;9.222;2022-08-05T02:06:37;28.40;1.00
702;DHT22;334;48.808;9.222;2022-08-05T02:07:40;28.50;1.00
702;DHT22;334;48.808;9.222;2022-08-05T02:09:00;28.40;1.00
702;DHT22;334;48.808;9.222;2022-08-05T02:10:03;28.40;1.00
702;DHT22;334;48.808;9.222;2022-08-05T02:11:10;28.50;1.00
702;DHT22;334;48.808;9.222;2022-08-05T02:13:00;28.30;1.00
702;DHT22;334;48.808;9.222;2022-08-05T02:15:27;28.40;1.00
702;DHT22;334;48.808;9.222;2022-08-05T02:16:46;28.40;1.00
702;DHT22;334;48.808;9.222;2022-08-05T02:18:04;28.40;1.00
702;DHT22;334;48.808;9.222;2022-08-05T02:20:32;28.30;1.00
702;DHT22;334;48.808;9.222;2022-08-05T02:21:44;28.50;1.00
702;DHT22;334;48.808;9.222;2022-08-05T02:22:58;28.30;1.00
702;DHT22;334;48.808;9.222;2022-08-05T02:24:05;28.30;1.00
702;DHT22;334;48.808;9.222;2022-08-05T02:25:13;28.30;1.00
702;DHT22;334;48.808;9.222;2022-08-05T02:26:21;28.30;1.00
702;DHT22;334;48.808;9.222;2022-08-05T02:27:29;28.30;1.00
702;DHT22;334;48.808;9.222;2022-08-05T02:28:51;28.30;1.00
702;DHT22;334;48.808;9.222;2022-08-05T02:29:55;28.20;1.00
702;DHT22;334;48.808;9.222;2022-08-05T02:31:14;28.20;1.00
702;DHT22;334;48.808;9.222;2022-08-05T02:32:22;28.20;1.00
702;DHT22;334;48.808;9.222;2022-08-05T02:33:35;28.20;1.00
702;DHT22;334;48.808;9.222;2022-08-05T02:34:40;28.20;1.00
702;DHT22;334;48.808;9.222;2022-08-05T02:35:43;28.10;1.00
702;DHT22;334;48.808;9.222;2022-08-05T02:37:01;28.10;1.00
702;DHT22;334;48.808;9.222;2022-08-05T02:38:05;28.20;1.00
702;DHT22;334;48.808;9.222;2022-08-05T02:39:11;28.20;1.00
702;DHT22;334;48.808;9.222;2022-08-05T02:40:15;28.20;1.00
702;DHT22;334;48.808;9.222;2022-08-05T02:41:19;28.20;1.00
702;DHT22;334;48.808;9.222;2022-08-05T02:42:23;28.20;1.00
702;DHT22;334;48.808;9.222;2022-08-05T02:43:29;28.20;1.00
702;DHT22;334;48.808;9.222;2022-08-05T02:44:37;28.20;1.00
702;DHT22;334;48.808;9.222;2022-08-05T02:45:41;28.20;1.00
702;DHT22;334;48.808;9.222;2022-08-05T02:46:55;28.20;1.00
702;DHT22;334;48.808;9.222;2022-08-05T02:48:01;28.10;1.00
702;DHT22;334;48.808;9.222;2022-08-05T02:49:16;28.10;1.00
702;DHT22;334;48.808;9.222;2022-08-05T02:50:23;28.10;1.00
702;DHT22;334;48.808;9.222;2022-08-05T02:51:26;28.10;1.00
702;DHT22;334;48.808;9.222;2022-08-05T02:52:48;28.10;1.00
702;DHT22;334;48.808;9.222;2022-08-05T02:53:51;28.10;1.00
702;DHT22;334;48.808;9.222;2022-08-05T02:54:56;28.10;1.00
702;DHT22;334;48.808;9.222;2022-08-05T02:55:58;28.20;1.00
702;DHT22;334;48.808;9.222;2022-08-05T02:57:10;28.10;1.00
702;DHT22;334;48.808;9.222;2022-08-05T02:58:33;28.10;1.00
702;DHT22;334;48.808;9.222;2022-08-05T02:59:47;28.20;1.00
702;DHT22;334;48.808;9.222;2022-08-05T03:00:54;28.20;1.00
702;DHT22;334;48.808;9.222;2022-08-05T03:01:57;28.20;1.00
702;DHT22;334;48.808;9.222;2022-08-05T03:03:01;28.20;1.00
702;DHT22;334;48.808;9.222;2022-08-05T03:04:13;28.20;1.00
702;DHT22;334;48.808;9.222;2022-08-05T03:05:16;28.10;1.00
702;DHT22;334;48.808;9.222;2022-08-05T03:06:40;28.20;1.00
702;DHT22;334;48.808;9.222;2022-08-05T03:08:00;28.20;1.00
702;DHT22;334;48.808;9.222;2022-08-05T03:09:13;28.10;1.00
702;DHT22;334;48.808;9.222;2022-08-05T03:10:18;28.10;1.00
702;DHT22;334;48.808;9.222;2022-08-05T03:11:26;28.00;1.00
702;DHT22;334;48.808;9.222;2022-08-05T03:12:47;28.20;1.00
702;DHT22;334;48.808;9.222;2022-08-05T03:13:52;28.00;1.00
702;DHT22;334;48.808;9.222;2022-08-05T03:15:07;28.00;1.00
702;DHT22;334;48.808;9.222;2022-08-05T03:16:09;28.00;1.00
702;DHT22;334;48.808;9.222;2022-08-05T03:17:16;27.90;1.00
702;DHT22;334;48.808;9.222;2022-08-05T03:18:20;27.90;1.00
702;DHT22;334;48.808;9.222;2022-08-05T03:19:30;27.90;1.00
702;DHT22;334;48.808;9.222;2022-08-05T03:20:35;27.90;1.00
702;DHT22;334;48.808;9.222;2022-08-05T03:21:36;28.00;1.00
702;DHT22;334;48.808;9.222;2022-08-05T03:22:48;27.90;1.00
702;DHT22;334;48.808;9.222;2022-08-05T03:23:51;27.90;1.00
702;DHT22;334;48.808;9.222;2022-08-05T03:24:53;27.90;1.00
702;DHT22;334;48.808;9.222;2022-08-05T03:26:03;27.90;1.00
702;DHT22;334;48.808;9.222;2022-08-05T03:27:25;27.90;1.00
702;DHT22;334;48.808;9.222;2022-08-05T03:28:47;27.90;1.00
702;DHT22;334;48.808;9.222;2022-08-05T03:29:52;27.90;1.00
702;DHT22;334;48.808;9.222;2022-08-05T03:31:09;27.90;1.00
702;DHT22;334;48.808;9.222;2022-08-05T03:32:32;28.00;1.00
702;DHT22;334;48.808;9.222;2022-08-05T03:33:34;27.90;1.00
702;DHT22;334;48.808;9.222;2022-08-05T03:34:53;27.90;1.00
702;DHT22;334;48.808;9.222;2022-08-05T03:35:56;27.80;1.00
702;DHT22;334;48.808;9.222;2022-08-05T03:36:59;27.80;1.00
702;DHT22;334;48.808;9.222;2022-08-05T03:38:02;27.80;1.00
702;DHT22;334;48.808;9.222;2022-08-05T03:39:07;27.80;1.00
702;DHT22;334;48.808;9.222;2022-08-05T03:40:20;27.80;1.00
702;DHT22;334;48.808;9.222;2022-08-05T03:41:32;27.80;1.00
702;DHT22;334;48.808;9.222;2022-08-05T03:42:47;27.90;1.00
702;DHT22;334;48.808;9.222;2022-08-05T03:43:53;27.90;1.00
702;DHT22;334;48.808;9.222;2022-08-05T03:45:11;27.90;1.00
702;DHT22;334;48.808;9.222;2022-08-05T03:46:23;27.90;1.00
702;DHT22;334;48.808;9.222;2022-08-05T03:47:30;27.80;1.00
702;DHT22;334;48.808;9.222;2022-08-05T03:48:57;27.80;1.00
702;DHT22;334;48.808;9.222;2022-08-05T03:49:59;27.90;1.00
702;DHT22;334;48.808;9.222;2022-08-05T03:51:11;27.90;1.00
702;DHT22;334;48.808;9.222;2022-08-05T03:52:41;27.90;1.00
702;DHT22;334;48.808;9.222;2022-08-05T03:54:19;27.90;1.00
702;DHT22;334;48.808;9.222;2022-08-05T03:55:47;27.80;1.00
702;DHT22;334;48.808;9.222;2022-08-05T03:57:12;27.90;1.00
702;DHT22;334;48.808;9.222;2022-08-05T03:58:35;27.90;1.00
702;DHT22;334;48.808;9.222;2022-08-05T03:59:45;27.80;1.00
702;DHT22;334;48.808;9.222;2022-08-05T04:00:56;27.80;1.00
702;DHT22;334;48.808;9.222;2022-08-05T04:02:01;27.80;1.00
702;DHT22;334;48.808;9.222;2022-08-05T04:03:04;27.80;1.00
702;DHT22;334;48.808;9.222;2022-08-05T04:04:07;27.80;1.00
702;DHT22;334;48.808;9.222;2022-08-05T04:05:11;27.80;1.00
702;DHT22;334;48.808;9.222;2022-08-05T04:06:14;27.80;1.00
702;DHT22;334;48.808;9.222;2022-08-05T04:07:21;27.90;1.00
702;DHT22;334;48.808;9.222;2022-08-05T04:08:25;27.80;1.00
702;DHT22;334;48.808;9.222;2022-08-05T04:09:37;27.90;1.00
702;DHT22;334;48.808;9.222;2022-08-05T04:10:54;27.90;1.00
702;DHT22;334;48.808;9.222;2022-08-05T04:11:56;27.80;1.00
702;DHT22;334;48.808;9.222;2022-08-05T04:12:58;27.70;1.00
702;DHT22;334;48.808;9.222;2022-08-05T04:14:04;27.80;1.00
702;DHT22;334;48.808;9.222;2022-08-05T04:15:06;27.70;1.00
702;DHT22;334;48.808;9.222;2022-08-05T04:16:08;27.80;1.00
702;DHT22;334;48.808;9.222;2022-08-05T04:17:15;27.70;1.00
702;DHT22;334;48.808;9.222;2022-08-05T04:18:17;27.80;1.00
702;DHT22;334;48.808;9.222;2022-08-05T04:19:23;27.80;1.00
702;DHT22;334;48.808;9.222;2022-08-05T04:20:24;27.70;1.00
702;DHT22;334;48.808;9.222;2022-08-05T04:21:27;27.80;1.00
702;DHT22;334;48.808;9.222;2022-08-05T04:22:49;27.70;1.00
702;DHT22;334;48.808;9.222;2022-08-05T04:23:51;27.80;1.00
702;DHT22;334;48.808;9.222;2022-08-05T04:25:07;27.70;1.00
702;DHT22;334;48.808;9.222;2022-08-05T04:26:12;27.70;1.00
702;DHT22;334;48.808;9.222;2022-08-05T04:27:17;27.70;1.00
702;DHT22;334;48.808;9.222;2022-08-05T04:28:20;27.70;1.00
702;DHT22;334;48.808;9.222;2022-08-05T04:29:32;27.70;1.00
702;DHT22;334;48.808;9.222;2022-08-05T04:30:34;27.70;1.00
702;DHT22;334;48.808;9.222;2022-08-05T04:31:36;27.70;1.00
702;DHT22;334;48.808;9.222;2022-08-05T04:32:39;27.70;1.00
702;DHT22;334;48.808;9.222;2022-08-05T04:33:42;27.70;1.00
702;DHT22;334;48.808;9.222;2022-08-05T04:35:04;27.60;1.00
702;DHT22;334;48.808;9.222;2022-08-05T04:36:07;27.70;1.00
702;DHT22;334;48.808;9.222;2022-08-05T04:37:30;27.70;1.00
702;DHT22;334;48.808;9.222;2022-08-05T04:38:53;27.70;1.00
702;DHT22;334;48.808;9.222;2022-08-05T04:39:58;27.60;1.00
702;DHT22;334;48.808;9.222;2022-08-05T04:40:59;27.60;1.00
702;DHT22;334;48.808;9.222;2022-08-05T04:42:04;27.60;1.00
702;DHT22;334;48.808;9.222;2022-08-05T04:43:06;27.60;1.00
702;DHT22;334;48.808;9.222;2022-08-05T04:44:17;27.60;1.00
702;DHT22;334;48.808;9.222;2022-08-05T04:45:30;27.60;1.00
702;DHT22;334;48.808;9.222;2022-08-05T04:46:52;27.60;1.00
702;DHT22;334;48.808;9.222;2022-08-05T04:48:08;27.60;1.00
702;DHT22;334;48.808;9.222;2022-08-05T04:49:19;27.60;1.00
702;DHT22;334;48.808;9.222;2022-08-05T04:50:44;27.60;1.00
702;DHT22;334;48.808;9.222;2022-08-05T04:52:07;27.60;1.00
702;DHT22;334;48.808;9.222;2022-08-05T04:53:11;27.60;1.00
702;DHT22;334;48.808;9.222;2022-08-05T04:54:14;27.60;1.00
702;DHT22;334;48.808;9.222;2022-08-05T04:55:16;27.60;1.00
702;DHT22;334;48.808;9.222;2022-08-05T04:56:38;27.60;1.00
702;DHT22;334;48.808;9.222;2022-08-05T04:57:43;27.60;1.00
702;DHT22;334;48.808;9.222;2022-08-05T04:58:52;27.60;1.00
702;DHT22;334;48.808;9.222;2022-08-05T04:59:54;27.60;1.00
702;DHT22;334;48.808;9.222;2022-08-05T05:00:55;27.50;1.00
702;DHT22;334;48.808;9.222;2022-08-05T05:01:57;27.50;1.00
702;DHT22;334;48.808;9.222;2022-08-05T05:03:19;27.60;1.00
702;DHT22;334;48.808;9.222;2022-08-05T05:04:21;27.60;1.00
702;DHT22;334;48.808;9.222;2022-08-05T05:05:22;27.50;1.00
702;DHT22;334;48.808;9.222;2022-08-05T05:06:29;27.50;1.00
702;DHT22;334;48.808;9.222;2022-08-05T05:07:45;27.50;1.00
702;DHT22;334;48.808;9.222;2022-08-05T05:08:56;27.40;1.00
702;DHT22;334;48.808;9.222;2022-08-05T05:10:06;27.40;1.00
702;DHT22;334;48.808;9.222;2022-08-05T05:11:07;27.40;1.00
702;DHT22;334;48.808;9.222;2022-08-05T05:12:09;27.40;1.00
702;DHT22;334;48.808;9.222;2022-08-05T05:13:14;27.30;1.00
702;DHT22;334;48.808;9.222;2022-08-05T05:14:17;27.30;1.00
702;DHT22;334;48.808;9.222;2022-08-05T05:15:31;27.30;1.00
702;DHT22;334;48.808;9.222;2022-08-05T05:16:53;27.30;1.00
702;DHT22;334;48.808;9.222;2022-08-05T05:17:55;27.20;1.00
702;DHT22;334;48.808;9.222;2022-08-05T05:18:59;27.20;1.00
702;DHT22;334;48.808;9.222;2022-08-05T05:20:20;27.20;1.00
702;DHT22;334;48.808;9.222;2022-08-05T05:21:28;27.20;1.00
702;DHT22;334;48.808;9.222;2022-08-05T05:22:34;27.20;1.00
702;DHT22;334;48.808;9.222;2022-08-05T05:23:41;27.20;1.00
702;DHT22;334;48.808;9.222;2022-08-05T05:25:03;27.30;1.00
702;DHT22;334;48.808;9.222;2022-08-05T05:26:18;27.30;1.00
702;DHT22;334;48.808;9.222;2022-08-05T05:27:19;27.50;1.00
702;DHT22;334;48.808;9.222;2022-08-05T05:28:21;27.30;1.00
702;DHT22;334;48.808;9.222;2022-08-05T05:29:25;27.40;1.00
702;DHT22;334;48.808;9.222;2022-08-05T05:30:47;27.30;1.00
702;DHT22;334;48.808;9.222;2022-08-05T05:31:50;27.40;1.00
702;DHT22;334;48.808;9.222;2022-08-05T05:32:53;27.40;1.00
702;DHT22;334;48.808;9.222;2022-08-05T05:33:55;27.40;1.00
702;DHT22;334;48.808;9.222;2022-08-05T05:35:02;27.40;1.00
702;DHT22;334;48.808;9.222;2022-08-05T05:36:06;27.20;1.00
702;DHT22;334;48.808;9.222;2022-08-05T05:37:13;27.50;1.00
702;DHT22;334;48.808;9.222;2022-08-05T05:38:16;27.50;1.00
702;DHT22;334;48.808;9.222;2022-08-05T05:39:27;27.50;1.00
702;DHT22;334;48.808;9.222;2022-08-05T05:40:35;27.60;1.00
702;DHT22;334;48.808;9.222;2022-08-05T05:41:44;27.60;1.00
702;DHT22;334;48.808;9.222;2022-08-05T05:42:54;27.60;1.00
702;DHT22;334;48.808;9.222;2022-08-05T05:43:57;27.70;1.00
702;DHT22;334;48.808;9.222;2022-08-05T05:45:01;27.70;1.00
702;DHT22;334;48.808;9.222;2022-08-05T05:46:03;27.80;1.00
702;DHT22;334;48.808;9.222;2022-08-05T05:47:07;27.90;1.00
702;DHT22;334;48.808;9.222;2022-08-05T05:48:23;27.90;1.00
702;DHT22;334;48.808;9.222;2022-08-05T05:49:28;28.00;1.00
702;DHT22;334;48.808;9.222;2022-08-05T05:50:30;28.10;1.00
702;DHT22;334;48.808;9.222;2022-08-05T05:51:34;28.20;1.00
702;DHT22;334;48.808;9.222;2022-08-05T05:52:51;28.30;1.00
702;DHT22;334;48.808;9.222;2022-08-05T05:53:52;28.40;1.00
702;DHT22;334;48.808;9.222;2022-08-05T05:55:00;28.40;1.00
702;DHT22;334;48.808;9.222;2022-08-05T05:56:07;28.60;1.00
702;DHT22;334;48.808;9.222;2022-08-05T05:57:10;28.70;1.00
702;DHT22;334;48.808;9.222;2022-08-05T05:58:19;28.70;1.00
702;DHT22;334;48.808;9.222;2022-08-05T05:59:31;28.80;1.00
702;DHT22;334;48.808;9.222;2022-08-05T06:00:40;28.90;1.00
702;DHT22;334;48.808;9.222;2022-08-05T06:01:46;29.00;1.00
702;DHT22;334;48.808;9.222;2022-08-05T06:03:00;29.00;1.00
702;DHT22;334;48.808;9.222;2022-08-05T06:04:02;29.10;1.00
702;DHT22;334;48.808;9.222;2022-08-05T06:05:07;29.10;1.00
702;DHT22;334;48.808;9.222;2022-08-05T06:06:16;29.10;1.00
702;DHT22;334;48.808;9.222;2022-08-05T06:07:18;29.30;1.00
702;DHT22;334;48.808;9.222;2022-08-05T06:08:23;29.30;1.00
702;DHT22;334;48.808;9.222;2022-08-05T06:09:33;29.20;1.00
702;DHT22;334;48.808;9.222;2022-08-05T06:10:55;29.30;1.00
702;DHT22;334;48.808;9.222;2022-08-05T06:11:56;29.40;1.00
702;DHT22;334;48.808;9.222;2022-08-05T06:13:02;29.40;1.00
702;DHT22;334;48.808;9.222;2022-08-05T06:14:06;29.40;1.00
702;DHT22;334;48.808;9.222;2022-08-05T06:15:08;29.40;1.00
702;DHT22;334;48.808;9.222;2022-08-05T06:16:25;29.40;1.00
702;DHT22;334;48.808;9.222;2022-08-05T06:17:32;29.40;1.00
702;DHT22;334;48.808;9.222;2022-08-05T06:18:54;29.40;1.00
702;DHT22;334;48.808;9.222;2022-08-05T06:20:00;29.50;1.00
702;DHT22;334;48.808;9.222;2022-08-05T06:21:03;29.30;1.00
702;DHT22;334;48.808;9.222;2022-08-05T06:22:08;29.30;1.00
702;DHT22;334;48.808;9.222;2022-08-05T06:23:10;29.30;1.00
702;DHT22;334;48.808;9.222;2022-08-05T06:24:12;29.30;1.00
702;DHT22;334;48.808;9.222;2022-08-05T06:25:15;29.30;1.00
702;DHT22;334;48.808;9.222;2022-08-05T06:26:37;29.40;1.00
702;DHT22;334;48.808;9.222;2022-08-05T06:27:38;29.40;1.00
702;DHT22;334;48.808;9.222;2022-08-05T06:29:00;29.40;1.00
702;DHT22;334;48.808;9.222;2022-08-05T06:30:08;29.40;1.00
702;DHT22;334;48.808;9.222;2022-08-05T06:31:21;29.40;1.00
702;DHT22;334;48.808;9.222;2022-08-05T06:32:32;29.40;1.00
702;DHT22;334;48.808;9.222;2022-08-05T06:33:34;29.40;1.00
702;DHT22;334;48.808;9.222;2022-08-05T06:34:56;29.40;1.00
702;DHT22;334;48.808;9.222;2022-08-05T06:36:15;29.40;1.00
702;DHT22;334;48.808;9.222;2022-08-05T06:37:17;29.40;1.00
702;DHT22;334;48.808;9.222;2022-08-05T06:38:39;29.40;1.00
702;DHT22;334;48.808;9.222;2022-08-05T06:39:47;29.40;1.00
702;DHT22;334;48.808;9.222;2022-08-05T06:40:50;29.50;1.00
702;DHT22;334;48.808;9.222;2022-08-05T06:41:56;29.50;1.00
702;DHT22;334;48.808;9.222;2022-08-05T06:42:59;29.50;1.00
702;DHT22;334;48.808;9.222;2022-08-05T06:44:01;29.50;1.00
702;DHT22;334;48.808;9.222;2022-08-05T06:45:03;29.50;1.00
702;DHT22;334;48.808;9.222;2022-08-05T06:46:09;29.40;1.00
702;DHT22;334;48.808;9.222;2022-08-05T06:47:11;29.50;1.00
702;DHT22;334;48.808;9.222;2022-08-05T06:48:33;29.50;1.00
702;DHT22;334;48.808;9.222;2022-08-05T06:49:55;29.60;1.00
702;DHT22;334;48.808;9.222;2022-08-05T06:51:03;29.70;1.00
702;DHT22;334;48.808;9.222;2022-08-05T06:52:10;29.60;1.00
702;DHT22;334;48.808;9.222;2022-08-05T06:53:32;29.50;1.00
702;DHT22;334;48.808;9.222;2022-08-05T06:54:39;29.50;1.00
702;DHT22;334;48.808;9.222;2022-08-05T06:55:41;29.50;1.00
702;DHT22;334;48.808;9.222;2022-08-05T06:56:46;29.40;1.00
702;DHT22;334;48.808;9.222;2022-08-05T06:58:08;29.50;1.00
702;DHT22;334;48.808;9.222;2022-08-05T06:59:29;29.60;1.00
702;DHT22;334;48.808;9.222;2022-08-05T07:00:39;29.50;1.00
702;DHT22;334;48.808;9.222;2022-08-05T07:01:41;29.40;1.00
702;DHT22;334;48.808;9.222;2022-08-05T07:02:46;29.50;1.00
702;DHT22;334;48.808;9.222;2022-08-05T07:03:54;29.50;1.00
702;DHT22;334;48.808;9.222;2022-08-05T07:04:56;29.50;1.00
702;DHT22;334;48.808;9.222;2022-08-05T07:05:59;29.50;1.00
702;DHT22;334;48.808;9.222;2022-08-05T07:07:14;29.50;1.00
702;DHT22;334;48.808;9.222;2022-08-05T07:08:24;29.50;1.00
702;DHT22;334;48.808;9.222;2022-08-05T07:09:29;29.50;1.00
702;DHT22;334;48.808;9.222;2022-08-05T07:10:38;29.40;1.00
702;DHT22;334;48.808;9.222;2022-08-05T07:11:54;29.20;1.00
702;DHT22;334;48.808;9.222;2022-08-05T07:13:01;29.20;1.00
702;DHT22;334;48.808;9.222;2022-08-05T07:14:41;29.10;1.00
702;DHT22;334;48.808;9.222;2022-08-05T07:16:03;29.10;1.00
702;DHT22;334;48.808;9.222;2022-08-05T07:17:44;29.00;1.00
702;DHT22;334;48.808;9.222;2022-08-05T07:19:06;29.00;1.00
702;DHT22;334;48.808;9.222;2022-08-05T07:20:08;28.90;1.00
702;DHT22;334;48.808;9.222;2022-08-05T07:21:30;28.90;1.00
702;DHT22;334;48.808;9.222;2022-08-05T07:22:51;28.90;1.00
702;DHT22;334;48.808;9.222;2022-08-05T07:23:53;28.90;1.00
702;DHT22;334;48.808;9.222;2022-08-05T07:24:57;28.90;1.00
702;DHT22;334;48.808;9.222;2022-08-05T07:25:58;29.00;1.00
702;DHT22;334;48.808;9.222;2022-08-05T07:27:02;29.00;1.00
702;DHT22;334;48.808;9.222;2022-08-05T07:28:18;29.00;1.00
702;DHT22;334;48.808;9.222;2022-08-05T07:29:20;28.90;1.00
702;DHT22;334;48.808;9.222;2022-08-05T07:30:41;29.00;1.00
702;DHT22;334;48.808;9.222;2022-08-05T07:31:50;29.00;1.00
702;DHT22;334;48.808;9.222;2022-08-05T07:32:55;29.00;1.00
702;DHT22;334;48.808;9.222;2022-08-05T07:33:57;29.00;1.00
702;DHT22;334;48.808;9.222;2022-08-05T07:35:00;29.10;1.00
702;DHT22;334;48.808;9.222;2022-08-05T07:36:22;29.10;1.00
702;DHT22;334;48.808;9.222;2022-08-05T07:37:23;29.30;1.00
702;DHT22;334;48.808;9.222;2022-08-05T07:38:36;29.20;1.00
702;DHT22;334;48.808;9.222;2022-08-05T07:39:44;29.30;1.00
702;DHT22;334;48.808;9.222;2022-08-05T07:41:08;29.30;1.00
702;DHT22;334;48.808;9.222;2022-08-05T07:42:30;29.30;1.00
702;DHT22;334;48.808;9.222;2022-08-05T07:43:37;29.20;1.00
702;DHT22;334;48.808;9.222;2022-08-05T07:44:38;29.10;1.00
702;DHT22;334;48.808;9.222;2022-08-05T07:45:41;29.10;1.00
702;DHT22;334;48.808;9.222;2022-08-05T07:46:58;29.20;1.00
702;DHT22;334;48.808;9.222;2022-08-05T07:48:01;29.20;1.00
702;DHT22;334;48.808;9.222;2022-08-05T07:49:03;29.30;1.00
702;DHT22;334;48.808;9.222;2022-08-05T07:50:08;29.30;1.00
702;DHT22;334;48.808;9.222;2022-08-05T07:51:10;29.40;1.00
702;DHT22;334;48.808;9.222;2022-08-05T07:52:37;29.40;1.00
702;DHT22;334;48.808;9.222;2022-08-05T07:53:40;29.50;1.00
702;DHT22;334;48.808;9.222;2022-08-05T07:54:51;29.50;1.00
702;DHT22;334;48.808;9.222;2022-08-05T07:55:53;29.60;1.00
702;DHT22;334;48.808;9.222;2022-08-05T07:57:07;29.70;1.00
702;DHT22;334;48.808;9.222;2022-08-05T07:58:28;29.70;1.00
702;DHT22;334;48.808;9.222;2022-08-05T07:59:52;29.80;1.00
702;DHT22;334;48.808;9.222;2022-08-05T08:00:54;29.90;1.00
702;DHT22;334;48.808;9.222;2022-08-05T08:01:56;29.90;1.00
702;DHT22;334;48.808;9.222;2022-08-05T08:02:58;29.90;1.00
702;DHT22;334;48.808;9.222;2022-08-05T08:04:15;29.90;1.00
702;DHT22;334;48.808;9.222;2022-08-05T08:05:34;30.00;1.00
702;DHT22;334;48.808;9.222;2022-08-05T08:06:40;30.10;1.00